createdAt,value
2018-04-27T00:00:08.763Z,64.74
2018-04-27T00:02:36.299Z,64.83
2018-04-27T00:05:03.954Z,65.26
2018-04-27T00:07:31.488Z,65.47
2018-04-27T00:09:59.025Z,65.76
2018-04-27T00:12:26.690Z,65.85
2018-04-27T00:14:54.227Z,65.73
2018-04-27T00:17:21.776Z,65.54
2018-04-27T00:19:49.367Z,65.63
2018-04-27T00:22:16.911Z,65.96
2018-04-27T00:24:44.435Z,66.07
2018-04-27T00:27:12.376Z,66.11
2018-04-27T00:29:39.936Z,66.41
2018-04-27T00:32:07.497Z,66.67
2018-04-27T00:34:35.371Z,66.85
2018-04-27T00:37:02.912Z,67.00
2018-04-27T00:39:30.458Z,67.13
2018-04-27T00:41:58.026Z,67.24
2018-04-27T00:44:25.554Z,67.32
2018-04-27T00:46:53.082Z,67.32
2018-04-27T00:49:20.802Z,67.21
2018-04-27T00:51:48.335Z,67.26
2018-04-27T00:54:15.862Z,67.35
2018-04-27T00:56:43.422Z,67.58
2018-04-27T00:59:10.978Z,67.64
2018-04-27T01:01:38.512Z,67.40
2018-04-27T01:04:06.193Z,67.78
2018-04-27T01:06:33.737Z,67.91
2018-04-27T01:09:01.279Z,67.91
2018-04-27T01:11:29.141Z,67.80
2018-04-27T01:13:56.667Z,67.84
2018-04-27T01:16:24.199Z,67.96
2018-04-27T01:18:52.053Z,68.23
2018-04-27T01:21:19.620Z,68.47
2018-04-27T01:23:47.151Z,68.79
2018-04-27T01:26:14.721Z,69.08
2018-04-27T01:28:42.259Z,69.23
2018-04-27T01:31:09.890Z,69.00
2018-04-27T01:33:37.531Z,68.94
2018-04-27T01:36:05.934Z,68.92
2018-04-27T01:38:33.461Z,68.93
2018-04-27T01:41:01.145Z,68.85
2018-04-27T01:43:28.684Z,68.98
2018-04-27T01:45:56.222Z,69.19
2018-04-27T01:48:24.083Z,69.29
2018-04-27T01:50:51.619Z,68.90
2018-04-27T01:53:19.191Z,68.59
2018-04-27T01:55:46.759Z,68.46
2018-04-27T01:58:14.291Z,68.14
2018-04-27T02:00:41.846Z,67.87
2018-04-27T02:03:09.547Z,67.89
2018-04-27T02:05:37.081Z,67.92
2018-04-27T02:08:04.647Z,68.13
2018-04-27T02:10:32.237Z,68.39
2018-04-27T02:12:59.792Z,67.83
2018-04-27T02:15:27.350Z,68.39
2018-04-27T02:17:55.073Z,68.60
2018-04-27T02:20:22.625Z,68.71
2018-04-27T02:22:50.189Z,69.03
2018-04-27T02:25:17.907Z,69.13
2018-04-27T02:27:45.435Z,69.15
2018-04-27T02:30:13.112Z,69.31
2018-04-27T02:32:40.781Z,69.38
2018-04-27T02:35:08.306Z,69.37
2018-04-27T02:37:35.857Z,69.43
2018-04-27T02:40:03.445Z,68.54
2018-04-27T02:42:30.987Z,68.28
2018-04-27T02:44:58.519Z,68.59
2018-04-27T02:47:26.246Z,69.06
2018-04-27T02:49:53.782Z,69.54
2018-04-27T02:52:21.314Z,69.81
2018-04-27T02:54:48.856Z,70.00
2018-04-27T02:57:16.392Z,70.12
2018-04-27T02:59:43.950Z,70.48
2018-04-27T03:02:11.504Z,70.70
2018-04-27T03:04:39.080Z,70.91
2018-04-27T03:07:06.670Z,71.25
2018-04-27T03:09:34.227Z,71.60
2018-04-27T03:12:01.790Z,71.70
2018-04-27T03:14:29.461Z,71.56
2018-04-27T03:16:56.993Z,71.38
2018-04-27T03:19:24.546Z,71.42
2018-04-27T03:21:52.221Z,71.51
2018-04-27T03:24:19.753Z,71.41
2018-04-27T03:26:47.315Z,71.43
2018-04-27T03:29:14.900Z,71.54
2018-04-27T03:31:42.437Z,71.52
2018-04-27T03:34:09.980Z,71.60
2018-04-27T03:36:37.693Z,71.65
2018-04-27T03:39:05.266Z,71.44
2018-04-27T03:41:32.848Z,71.10
2018-04-27T03:44:00.568Z,70.40
2018-04-27T03:46:28.091Z,69.34
2018-04-27T03:48:55.639Z,68.65
2018-04-27T03:51:23.496Z,68.31
2018-04-27T03:53:51.047Z,67.81
2018-04-27T03:56:18.605Z,65.92
2018-04-27T03:58:46.341Z,64.50
2018-04-27T04:01:25.500Z,62.66
2018-04-27T04:04:04.723Z,59.21
2018-04-27T04:06:32.255Z,55.87
2018-04-27T04:08:59.783Z,53.22
2018-04-27T04:11:27.360Z,50.45
2018-04-27T04:13:54.908Z,48.21
2018-04-27T04:16:22.454Z,45.74
2018-04-27T04:18:50.189Z,43.44
2018-04-27T04:21:17.729Z,41.53
2018-04-27T04:23:45.283Z,39.05
2018-04-27T04:26:13.146Z,39.74
2018-04-27T04:28:40.679Z,40.39
2018-04-27T04:31:08.228Z,41.64
2018-04-27T04:33:35.823Z,42.87
2018-04-27T04:36:03.364Z,44.40
2018-04-27T04:38:30.914Z,45.47
2018-04-27T04:40:58.501Z,46.60
2018-04-27T04:43:26.039Z,46.48
2018-04-27T04:45:53.567Z,46.39
2018-04-27T04:48:21.292Z,46.08
2018-04-27T04:50:48.835Z,45.61
2018-04-27T04:53:16.371Z,46.00
2018-04-27T04:55:44.095Z,44.75
2018-04-27T04:58:11.651Z,41.48
2018-04-27T05:00:39.198Z,37.81
2018-04-27T05:03:06.820Z,34.50
2018-04-27T05:05:34.386Z,31.79
2018-04-27T05:08:01.965Z,29.96
2018-04-27T05:10:29.562Z,28.39
2018-04-27T05:12:57.108Z,27.64
2018-04-27T05:15:24.646Z,27.31
2018-04-27T05:17:52.397Z,27.40
2018-04-27T05:20:19.402Z,27.21
2018-04-27T05:22:46.940Z,25.51
2018-04-27T05:25:14.583Z,25.75
2018-04-27T05:27:42.145Z,25.24
2018-04-27T05:30:09.681Z,24.83
2018-04-27T05:32:37.279Z,24.90
2018-04-27T05:35:04.820Z,26.23
2018-04-27T05:37:32.378Z,26.62
2018-04-27T05:40:00.172Z,26.88
2018-04-27T05:42:27.777Z,27.65
2018-04-27T05:44:55.341Z,28.77
2018-04-27T05:47:23.050Z,29.42
2018-04-27T05:49:50.637Z,30.41
2018-04-27T05:52:18.170Z,31.50
2018-04-27T05:54:45.717Z,32.81
2018-04-27T05:57:13.260Z,33.02
2018-04-27T05:59:40.840Z,32.81
2018-04-27T06:02:08.392Z,32.76
2018-04-27T06:04:36.017Z,32.64
2018-04-27T06:07:03.626Z,33.38
2018-04-27T06:09:31.245Z,33.59
2018-04-27T06:11:58.793Z,34.21
2018-04-27T06:14:26.380Z,34.34
2018-04-27T06:16:53.919Z,34.75
2018-04-27T06:19:21.480Z,33.70
2018-04-27T06:21:49.208Z,34.00
2018-04-27T06:24:16.790Z,33.99
2018-04-27T06:26:44.336Z,34.21
2018-04-27T06:29:12.208Z,34.58
2018-04-27T06:31:39.782Z,35.57
2018-04-27T06:34:07.340Z,36.62
2018-04-27T06:36:34.918Z,38.22
2018-04-27T06:39:02.460Z,38.86
2018-04-27T06:41:30.053Z,39.63
2018-04-27T06:43:57.676Z,39.78
2018-04-27T06:46:25.254Z,40.24
2018-04-27T06:48:52.800Z,40.95
2018-04-27T06:51:20.568Z,40.42
2018-04-27T06:53:48.131Z,40.26
2018-04-27T06:56:15.732Z,39.35
2018-04-27T06:58:43.639Z,39.11
2018-04-27T07:01:11.203Z,38.17
2018-04-27T07:03:38.791Z,38.19
2018-04-27T07:06:06.394Z,38.87
2018-04-27T07:08:33.988Z,38.34
2018-04-27T07:11:01.577Z,36.76
2018-04-27T07:13:29.196Z,36.67
2018-04-27T07:15:56.760Z,36.47
2018-04-27T07:18:24.306Z,37.41
2018-04-27T07:20:52.172Z,36.14
2018-04-27T07:23:19.721Z,36.46
2018-04-27T07:25:47.388Z,35.86
2018-04-27T07:28:14.948Z,35.37
2018-04-27T07:30:42.518Z,34.68
2018-04-27T07:33:10.094Z,35.15
2018-04-27T07:35:38.029Z,35.00
2018-04-27T07:38:05.607Z,35.36
2018-04-27T07:40:33.197Z,35.10
2018-04-27T07:43:00.820Z,35.45
2018-04-27T07:45:28.394Z,34.48
2018-04-27T07:47:55.960Z,35.05
2018-04-27T07:50:23.578Z,34.68
2018-04-27T07:52:51.149Z,34.31
2018-04-27T07:55:18.757Z,34.39
2018-04-27T07:57:46.329Z,35.14
2018-04-27T08:00:13.928Z,34.70
2018-04-27T08:02:41.493Z,34.92
2018-04-27T08:05:09.172Z,36.06
2018-04-27T08:07:36.757Z,35.40
2018-04-27T08:10:04.352Z,35.94
2018-04-27T08:12:31.959Z,36.26
2018-04-27T08:14:59.544Z,35.88
2018-04-27T08:17:27.120Z,36.51
2018-04-27T08:19:55.048Z,36.97
2018-04-27T08:22:22.731Z,36.67
2018-04-27T08:24:50.312Z,36.59
2018-04-27T08:27:18.165Z,36.66
2018-04-27T08:29:45.758Z,37.82
2018-04-27T08:32:13.348Z,36.97
2018-04-27T08:34:41.009Z,37.32
2018-04-27T08:37:08.562Z,37.15
2018-04-27T08:39:36.112Z,37.30
2018-04-27T08:42:03.712Z,37.41
2018-04-27T08:44:31.282Z,39.03
2018-04-27T08:46:58.845Z,38.20
2018-04-27T08:49:26.454Z,38.30
2018-04-27T08:51:54.046Z,37.51
2018-04-27T08:54:21.634Z,38.33
2018-04-27T08:56:49.377Z,38.38
2018-04-27T08:59:16.968Z,38.37
2018-04-27T09:01:44.526Z,38.84
2018-04-27T09:04:12.276Z,38.71
2018-04-27T09:06:39.859Z,37.64
2018-04-27T09:09:07.422Z,37.20
2018-04-27T09:11:35.034Z,37.34
2018-04-27T09:14:02.603Z,37.90
2018-04-27T09:16:30.160Z,37.95
2018-04-27T09:18:57.737Z,38.28
2018-04-27T09:21:25.335Z,38.00
2018-04-27T09:23:52.900Z,37.23
2018-04-27T09:26:20.729Z,38.54
2018-04-27T09:28:48.305Z,38.27
2018-04-27T09:31:15.879Z,36.85
2018-04-27T09:33:43.469Z,36.85
2018-04-27T09:36:11.028Z,37.83
2018-04-27T09:38:38.580Z,36.66
2018-04-27T09:41:06.198Z,37.56
2018-04-27T09:43:33.799Z,36.97
2018-04-27T09:46:01.396Z,37.53
2018-04-27T09:48:29.038Z,37.87
2018-04-27T09:50:56.633Z,38.77
2018-04-27T09:53:24.205Z,37.13
2018-04-27T09:55:51.804Z,37.95
2018-04-27T09:58:19.397Z,37.78
2018-04-27T10:00:46.999Z,37.20
2018-04-27T10:03:14.621Z,36.73
2018-04-27T10:05:42.218Z,37.86
2018-04-27T10:08:09.820Z,36.59
2018-04-27T10:10:37.548Z,37.62
2018-04-27T10:13:05.135Z,37.79
2018-04-27T10:15:32.689Z,38.11
2018-04-27T10:18:00.272Z,37.73
2018-04-27T10:20:27.901Z,38.02
2018-04-27T10:22:55.430Z,38.22
2018-04-27T10:25:23.153Z,39.15
2018-04-27T10:27:50.699Z,40.54
2018-04-27T10:30:18.286Z,40.39
2018-04-27T10:32:45.858Z,40.23
2018-04-27T10:35:13.396Z,41.24
2018-04-27T10:37:40.963Z,40.14
2018-04-27T10:40:08.592Z,41.33
2018-04-27T10:42:36.127Z,40.41
2018-04-27T10:45:03.744Z,40.41
2018-04-27T10:47:31.673Z,40.87
2018-04-27T10:49:59.305Z,40.59
2018-04-27T10:52:26.883Z,40.39
2018-04-27T10:54:54.470Z,40.32
2018-04-27T10:57:22.044Z,40.76
2018-04-27T10:59:49.808Z,40.62
2018-04-27T11:02:17.388Z,40.29
2018-04-27T11:04:44.975Z,41.12
2018-04-27T11:07:12.600Z,40.58
2018-04-27T11:09:40.302Z,40.32
2018-04-27T11:12:07.796Z,40.53
2018-04-27T11:14:35.437Z,39.82
2018-04-27T11:17:03.007Z,38.81
2018-04-27T11:19:30.606Z,39.53
2018-04-27T11:21:58.207Z,39.60
2018-04-27T11:24:25.858Z,38.25
2018-04-27T11:26:53.437Z,38.30
2018-04-27T11:29:21.000Z,38.95
2018-04-27T11:31:48.536Z,39.86
2018-04-27T11:34:16.104Z,39.98
2018-04-27T11:36:43.715Z,38.81
2018-04-27T11:39:11.280Z,39.58
2018-04-27T11:41:38.828Z,39.13
2018-04-27T11:44:06.411Z,39.24
2018-04-27T11:46:34.081Z,40.01
2018-04-27T11:49:01.678Z,39.41
2018-04-27T11:51:29.559Z,39.32
2018-04-27T11:53:57.112Z,37.52
2018-04-27T11:56:24.700Z,37.69
2018-04-27T11:58:52.605Z,37.94
2018-04-27T12:01:20.200Z,38.06
2018-04-27T12:03:47.862Z,36.90
2018-04-27T12:06:15.456Z,37.11
2018-04-27T12:08:43.025Z,37.82
2018-04-27T12:11:10.626Z,37.75
2018-04-27T12:13:38.406Z,39.24
2018-04-27T12:16:06.010Z,39.28
2018-04-27T12:18:33.608Z,39.15
2018-04-27T12:21:01.184Z,38.26
2018-04-27T12:23:28.723Z,38.63
2018-04-27T12:25:56.316Z,37.33
2018-04-27T12:28:23.988Z,38.58
2018-04-27T12:30:51.599Z,37.30
2018-04-27T12:33:19.095Z,38.18
2018-04-27T12:35:46.772Z,38.46
2018-04-27T12:38:14.369Z,38.59
2018-04-27T12:40:41.954Z,39.13
2018-04-27T12:43:09.606Z,38.02
2018-04-27T12:45:37.266Z,37.52
2018-04-27T12:48:04.840Z,36.70
2018-04-27T12:50:32.621Z,37.16
2018-04-27T12:53:00.214Z,36.93
2018-04-27T12:55:27.828Z,36.61
2018-04-27T12:57:55.576Z,37.55
2018-04-27T13:00:23.147Z,38.25
2018-04-27T13:02:50.695Z,37.88
2018-04-27T13:05:18.482Z,38.46
2018-04-27T13:07:46.067Z,37.11
2018-04-27T13:10:13.649Z,36.28
2018-04-27T13:12:42.224Z,36.68
2018-04-27T13:15:09.808Z,36.10
2018-04-27T13:17:37.398Z,36.52
2018-04-27T13:20:04.989Z,36.64
2018-04-27T13:22:32.543Z,36.56
2018-04-27T13:25:00.104Z,36.41
2018-04-27T13:27:27.691Z,36.15
2018-04-27T13:29:55.245Z,36.98
2018-04-27T13:32:22.785Z,36.17
2018-04-27T13:34:50.487Z,36.61
2018-04-27T13:37:18.099Z,37.46
2018-04-27T13:39:45.683Z,38.00
2018-04-27T13:42:13.336Z,37.27
2018-04-27T13:44:40.924Z,36.61
2018-04-27T13:47:08.502Z,36.52
2018-04-27T13:49:36.253Z,36.12
2018-04-27T13:52:03.823Z,36.27
2018-04-27T13:54:31.408Z,36.09
2018-04-27T13:56:59.189Z,37.04
2018-04-27T13:59:26.787Z,36.38
2018-04-27T14:01:54.368Z,36.67
2018-04-27T14:04:22.092Z,36.53
2018-04-27T14:06:49.662Z,36.07
2018-04-27T14:09:17.243Z,35.60
2018-04-27T14:11:45.012Z,36.25
2018-04-27T14:14:12.599Z,35.85
2018-04-27T14:16:40.200Z,35.84
2018-04-27T14:19:07.811Z,36.71
2018-04-27T14:21:35.391Z,36.45
2018-04-27T14:24:02.958Z,36.79
2018-04-27T14:26:30.549Z,36.56
2018-04-27T14:28:58.103Z,35.98
2018-04-27T14:31:25.650Z,36.77
2018-04-27T14:33:53.232Z,37.06
2018-04-27T14:36:20.799Z,36.48
2018-04-27T14:38:48.351Z,36.17
2018-04-27T14:41:15.955Z,36.73
2018-04-27T14:43:43.498Z,36.50
2018-04-27T14:46:11.043Z,37.00
2018-04-27T14:48:38.733Z,36.81
2018-04-27T14:51:06.360Z,36.97
2018-04-27T14:53:33.945Z,36.77
2018-04-27T14:56:01.536Z,36.96
2018-04-27T14:58:29.144Z,36.93
2018-04-27T15:00:57.069Z,37.50
2018-04-27T15:03:24.656Z,36.90
2018-04-27T15:05:52.243Z,37.55
2018-04-27T15:08:19.869Z,38.24
2018-04-27T15:10:47.465Z,38.60
2018-04-27T15:13:15.057Z,38.69
2018-04-27T15:15:42.875Z,38.80
2018-04-27T15:18:10.428Z,38.26
2018-04-27T15:20:38.008Z,38.39
2018-04-27T15:23:05.885Z,38.06
2018-04-27T15:25:33.437Z,38.70
2018-04-27T15:28:01.025Z,38.79
2018-04-27T15:30:28.922Z,39.34
2018-04-27T15:32:56.474Z,38.63
2018-04-27T15:35:24.064Z,38.95
2018-04-27T15:37:51.687Z,38.81
2018-04-27T15:40:19.265Z,38.92
2018-04-27T15:42:46.861Z,39.32
2018-04-27T15:45:14.513Z,39.33
2018-04-27T15:47:42.124Z,39.77
2018-04-27T15:50:09.732Z,39.12
2018-04-27T15:52:37.356Z,39.66
2018-04-27T15:55:04.908Z,39.83
2018-04-27T15:57:32.465Z,39.92
2018-04-27T16:00:00.095Z,39.86
2018-04-27T16:02:27.689Z,40.00
2018-04-27T16:04:55.279Z,39.25
2018-04-27T16:07:22.882Z,39.63
2018-04-27T16:09:50.455Z,39.52
2018-04-27T16:12:18.073Z,39.78
2018-04-27T16:14:45.988Z,40.19
2018-04-27T16:17:13.636Z,40.97
2018-04-27T16:19:41.225Z,41.75
2018-04-27T16:22:09.026Z,41.78
2018-04-27T16:24:36.661Z,41.95
2018-04-27T16:27:04.282Z,41.47
2018-04-27T16:29:32.051Z,41.83
2018-04-27T16:31:59.637Z,42.45
2018-04-27T16:34:27.233Z,42.30
2018-04-27T16:36:54.849Z,42.85
2018-04-27T16:39:22.450Z,43.53
2018-04-27T16:41:50.085Z,44.18
2018-04-27T16:44:17.980Z,44.30
2018-04-27T16:46:45.545Z,44.71
2018-04-27T16:49:13.098Z,43.31
2018-04-27T16:51:40.840Z,44.41
2018-04-27T16:54:08.416Z,44.67
2018-04-27T16:56:35.959Z,44.36
2018-04-27T16:59:03.573Z,44.80
2018-04-27T17:01:31.168Z,44.64
2018-04-27T17:03:58.742Z,45.68
2018-04-27T17:06:26.351Z,46.35
2018-04-27T17:08:53.931Z,46.97
2018-04-27T17:11:21.519Z,47.92
2018-04-27T17:13:49.169Z,48.46
2018-04-27T17:16:16.739Z,48.95
2018-04-27T17:18:44.334Z,50.36
2018-04-27T17:21:12.285Z,49.22
2018-04-27T17:23:39.877Z,49.25
2018-04-27T17:26:07.472Z,49.55
2018-04-27T17:28:35.141Z,49.47
2018-04-27T17:31:02.684Z,49.49
2018-04-27T17:33:30.268Z,49.60
2018-04-27T17:35:57.912Z,49.62
2018-04-27T17:38:25.504Z,49.56
2018-04-27T17:40:53.080Z,49.89
2018-04-27T17:43:20.879Z,49.80
2018-04-27T17:45:48.421Z,50.03
2018-04-27T17:48:16.042Z,50.41
2018-04-27T17:50:43.793Z,50.55
2018-04-27T17:53:11.364Z,50.74
2018-04-27T17:55:38.915Z,50.42
2018-04-27T17:58:06.799Z,50.25
2018-04-27T18:00:34.376Z,50.72
2018-04-27T18:03:03.470Z,50.48
2018-04-27T18:05:31.115Z,50.55
2018-04-27T18:07:58.659Z,51.05
2018-04-27T18:10:26.216Z,50.77
2018-04-27T18:12:53.903Z,50.88
2018-04-27T18:15:21.471Z,51.13
2018-04-27T18:17:49.065Z,50.80
2018-04-27T18:20:16.737Z,50.96
2018-04-27T18:22:44.313Z,51.31
2018-04-27T18:25:11.871Z,51.35
2018-04-27T18:27:39.507Z,51.77
2018-04-27T18:30:07.099Z,51.28
2018-04-27T18:32:34.672Z,51.30
2018-04-27T18:35:02.432Z,51.21
2018-04-27T18:37:30.026Z,50.92
2018-04-27T18:39:57.616Z,50.96
2018-04-27T18:42:25.477Z,51.18
2018-04-27T18:44:53.007Z,51.27
2018-04-27T18:47:20.587Z,50.88
2018-04-27T18:49:48.840Z,50.48
2018-04-27T18:52:16.447Z,50.65
2018-04-27T18:54:44.058Z,50.59
2018-04-27T18:57:11.885Z,50.70
2018-04-27T18:59:45.687Z,50.85
2018-04-27T19:02:13.435Z,50.52
2018-04-27T19:04:41.055Z,50.22
2018-04-27T19:07:08.664Z,50.39
2018-04-27T19:09:36.312Z,50.53
2018-04-27T19:12:03.913Z,50.44
2018-04-27T19:14:31.496Z,50.58
2018-04-27T19:16:59.124Z,50.51
2018-04-27T19:19:26.734Z,50.70
2018-04-27T19:21:54.312Z,50.80
2018-04-27T19:24:22.094Z,50.95
2018-04-27T19:26:49.720Z,52.04
2018-04-27T19:29:17.316Z,52.78
2018-04-27T19:31:45.058Z,53.54
2018-04-27T19:34:12.647Z,53.06
2018-04-27T19:36:40.235Z,53.32
2018-04-27T19:39:07.843Z,53.10
2018-04-27T19:41:35.413Z,53.61
2018-04-27T19:44:02.998Z,53.55
2018-04-27T19:46:30.800Z,54.10
2018-04-27T19:48:58.385Z,54.13
2018-04-27T19:51:26.020Z,54.50
2018-04-27T19:53:53.631Z,54.56
2018-04-27T19:56:21.213Z,54.71
2018-04-27T19:58:48.788Z,55.47
2018-04-27T20:01:16.568Z,56.29
2018-04-27T20:03:44.135Z,56.72
2018-04-27T20:06:11.726Z,57.89
2018-04-27T20:08:39.701Z,58.00
2018-04-27T20:11:07.408Z,58.53
2018-04-27T20:13:36.679Z,59.18
2018-04-27T20:16:04.642Z,59.57
2018-04-27T20:18:32.194Z,59.30
2018-04-27T20:20:59.782Z,60.60
2018-04-27T20:23:34.335Z,60.49
2018-04-27T20:26:05.800Z,60.97
2018-04-27T20:28:34.961Z,61.36
2018-04-27T20:31:02.629Z,61.57
2018-04-27T20:33:30.266Z,61.50
2018-04-27T20:35:58.508Z,62.06
2018-04-27T20:38:26.149Z,62.23
2018-04-27T20:40:53.739Z,62.42
2018-04-27T20:43:22.273Z,62.50
2018-04-27T20:45:49.903Z,62.53
2018-04-27T20:48:30.202Z,62.83
2018-04-27T20:51:13.548Z,62.97
2018-04-27T20:54:00.953Z,63.08
2018-04-27T20:56:29.223Z,63.31
2018-04-27T20:58:57.542Z,63.47
2018-04-27T21:01:26.074Z,63.75
2018-04-27T21:03:53.887Z,64.07
2018-04-27T21:06:21.467Z,64.22
2018-04-27T21:08:49.051Z,64.47
2018-04-27T21:11:16.959Z,64.61
2018-04-27T21:13:44.576Z,65.22
2018-04-27T21:16:12.176Z,65.47
2018-04-27T21:18:40.098Z,65.51
2018-04-27T21:21:07.701Z,65.48
2018-04-27T21:23:35.308Z,65.73
2018-04-27T21:26:02.956Z,65.99
2018-04-27T21:28:31.407Z,66.02
2018-04-27T21:30:58.991Z,65.99
2018-04-27T21:33:27.713Z,66.22
2018-04-27T21:35:56.180Z,66.38
2018-04-27T21:38:42.523Z,66.53
2018-04-27T21:44:19.204Z,66.75
2018-04-27T21:46:48.530Z,66.60
2018-04-27T21:49:17.847Z,66.98
2018-04-27T21:51:51.436Z,66.96
2018-04-27T21:54:19.788Z,66.74
2018-04-27T21:56:55.259Z,66.46
2018-04-27T22:02:27.764Z,65.93
2018-04-27T22:04:55.375Z,65.29
2018-04-27T22:07:25.279Z,65.96
2018-04-27T22:09:53.732Z,66.02
2018-04-27T22:12:21.304Z,67.12
2018-04-27T22:14:48.899Z,67.23
2018-04-27T22:17:34.159Z,67.53
2018-04-27T22:20:03.540Z,67.66
2018-04-27T22:22:31.120Z,68.06
2018-04-27T22:28:02.576Z,68.07
2018-04-27T22:30:33.080Z,68.03
2018-04-27T22:33:00.724Z,68.02
2018-04-27T22:35:35.848Z,67.60
2018-04-27T22:38:04.268Z,67.32
2018-04-27T22:40:36.753Z,67.38
2018-04-27T22:43:09.780Z,67.51
2018-04-27T22:45:38.335Z,67.99
2018-04-27T22:48:10.752Z,68.58
2018-04-27T22:53:48.718Z,69.00
2018-04-27T22:56:17.535Z,68.97
2018-04-27T22:58:45.151Z,69.03
2018-04-27T23:01:13.667Z,69.26
2018-04-27T23:03:43.444Z,69.36
2018-04-27T23:06:11.041Z,69.66
2018-04-27T23:08:41.245Z,69.74
2018-04-27T23:11:12.715Z,70.28
2018-04-27T23:13:47.103Z,70.29
2018-04-27T23:16:30.524Z,70.50
2018-04-27T23:18:58.094Z,70.59
2018-04-27T23:24:41.793Z,70.87
2018-04-27T23:27:09.399Z,71.17
2018-04-27T23:29:36.985Z,70.81
2018-04-27T23:32:04.546Z,71.08
2018-04-27T23:34:32.867Z,71.31
2018-04-27T23:37:00.463Z,70.99
2018-04-27T23:39:28.106Z,71.19
2018-04-27T23:41:55.828Z,71.23
2018-04-27T23:44:23.400Z,71.33
2018-04-27T23:46:50.998Z,70.73
2018-04-27T23:49:21.484Z,70.58
2018-04-27T23:51:49.066Z,70.64
2018-04-27T23:54:16.655Z,70.69
2018-04-27T23:56:47.959Z,70.79
2018-04-27T23:59:16.872Z,70.74
